Time;durP1;ratioP1;P1;durP2;ratioP2;P2;SDS_P1;SDS_P2;PMS_P1;PMS_P2;Temp;Humidity;BMP_temperature;BMP_pressure;BME280_temperature;BME280_humidity;BME280_pressure;Samples;Min_cycle;Max_cycle;Signal;HPM_P1;HPM_P2
2023/05/06 00:00:17;;;;;;;13.47;12.97;;;11.20;99.90;;;;;;5143211;27;20906;-67
2023/05/06 00:02:44;;;;;;;13.47;12.97;;;11.10;99.90;;;;;;5141969;27;21055;-67
2023/05/06 00:05:12;;;;;;;13.73;13.23;;;11.00;99.90;;;;;;5146130;27;20551;-67
2023/05/06 00:07:40;;;;;;;14.00;13.50;;;10.80;99.90;;;;;;5143911;27;20520;-67
2023/05/06 00:10:10;;;;;;;14.43;13.90;;;10.70;99.90;;;;;;5146956;27;20463;-67
2023/05/06 00:12:36;;;;;;;13.60;13.10;;;10.60;99.90;;;;;;5144506;27;20463;-67
2023/05/06 00:15:05;;;;;;;15.07;14.47;;;10.50;99.90;;;;;;5149996;27;20490;-67
2023/05/06 00:17:32;;;;;;;13.77;13.27;;;10.40;99.90;;;;;;5148191;27;20491;-67
2023/05/06 00:19:59;;;;;;;13.87;13.37;;;10.30;99.90;;;;;;5142921;27;20482;-67
2023/05/06 00:22:27;;;;;;;14.43;13.87;;;10.30;99.90;;;;;;5140664;27;20452;-67
2023/05/06 00:25:08;;;;;;;14.07;13.57;;;10.20;99.90;;;;;;5145048;27;20460;-67
2023/05/06 00:27:38;;;;;;;14.03;13.53;;;10.20;99.90;;;;;;5132501;27;20460;-67
2023/05/06 00:30:07;;;;;;;15.03;14.43;;;10.30;99.90;;;;;;5147831;27;20455;-66
2023/05/06 00:32:34;;;;;;;14.33;13.80;;;10.30;99.90;;;;;;5137960;27;20456;-66
2023/05/06 00:35:02;;;;;;;13.73;13.23;;;10.30;99.90;;;;;;5136898;27;20486;-67
2023/05/06 00:37:30;;;;;;;14.27;13.77;;;10.20;99.90;;;;;;5140457;27;20466;-67
2023/05/06 00:39:57;;;;;;;14.03;13.53;;;10.20;99.90;;;;;;5145402;27;21024;-67
2023/05/06 00:42:24;;;;;;;14.87;14.27;;;10.10;99.90;;;;;;5149488;27;20463;-66
2023/05/06 00:44:52;;;;;;;14.90;14.30;;;10.10;99.90;;;;;;5149372;27;20463;-67
2023/05/06 00:47:20;;;;;;;14.30;13.80;;;10.10;99.90;;;;;;5141825;27;20459;-67
2023/05/06 00:49:48;;;;;;;14.67;14.07;;;10.00;99.90;;;;;;5144110;27;20848;-66
2023/05/06 00:52:18;;;;;;;15.20;14.60;;;9.90;99.90;;;;;;5142936;27;20512;-66
2023/05/06 00:54:45;;;;;;;14.70;14.10;;;9.80;99.90;;;;;;5143872;27;20455;-67
2023/05/06 00:57:12;;;;;;;14.70;14.10;;;9.60;99.90;;;;;;5139155;27;20471;-66
2023/05/06 00:59:39;;;;;;;15.13;14.53;;;9.60;99.90;;;;;;5135381;27;20975;-67
2023/05/06 01:02:08;;;;;;;15.30;14.70;;;9.50;99.90;;;;;;5149191;27;20945;-66
2023/05/06 01:04:36;;;;;;;14.97;14.37;;;9.40;99.90;;;;;;5147354;27;20447;-66
2023/05/06 01:07:12;;;;;;;15.23;14.63;;;9.40;99.90;;;;;;5135686;27;21023;-67
2023/05/06 01:09:42;;;;;;;16.27;15.67;;;9.40;99.90;;;;;;5148041;27;20484;-66
2023/05/06 01:12:16;;;;;;;15.77;15.17;;;9.30;99.90;;;;;;5152637;27;20945;-66
2023/05/06 01:14:54;;;;;;;15.37;14.77;;;9.20;99.90;;;;;;5145832;27;20479;-66
2023/05/06 01:17:27;;;;;;;15.97;15.37;;;9.20;99.90;;;;;;5146562;27;20571;-66
2023/05/06 01:19:58;;;;;;;15.70;15.10;;;9.10;99.90;;;;;;5143916;27;20491;-66
2023/05/06 01:22:29;;;;;;;16.07;15.47;;;9.10;99.90;;;;;;5140343;27;20491;-67
2023/05/06 01:24:57;;;;;;;16.83;16.13;;;9.10;99.90;;;;;;5149894;27;20459;-67
2023/05/06 01:27:25;;;;;;;16.17;15.57;;;9.00;99.90;;;;;;5148874;27;20467;-66
2023/05/06 01:29:52;;;;;;;16.20;15.60;;;9.00;99.90;;;;;;5150164;27;20484;-67
2023/05/06 01:32:32;;;;;;;15.37;14.77;;;8.90;99.90;;;;;;5136841;27;20447;-67
2023/05/06 01:35:06;;;;;;;17.07;16.37;;;8.80;99.90;;;;;;5139655;27;20886;-66
2023/05/06 01:37:42;;;;;;;15.93;15.33;;;8.90;99.90;;;;;;5143176;27;20541;-66
2023/05/06 01:40:11;;;;;;;16.00;15.40;;;8.90;99.90;;;;;;5134417;27;20460;-66
2023/05/06 01:42:40;;;;;;;15.33;14.73;;;8.80;99.90;;;;;;5145818;27;20470;-66
2023/05/06 01:45:07;;;;;;;15.60;15.00;;;8.70;99.90;;;;;;5147199;27;20485;-66
2023/05/06 01:47:35;;;;;;;15.93;15.33;;;8.60;99.90;;;;;;5139789;27;20843;-69
2023/05/06 01:50:05;;;;;;;16.07;15.47;;;8.60;99.90;;;;;;5139881;27;20508;-65
2023/05/06 01:52:32;;;;;;;15.37;14.77;;;8.60;99.90;;;;;;5133972;27;20950;-67
2023/05/06 01:54:59;;;;;;;16.00;15.40;;;8.50;99.90;;;;;;5142904;27;20464;-66
2023/05/06 01:57:28;;;;;;;15.00;14.40;;;8.60;99.90;;;;;;5141104;27;20455;-67
2023/05/06 01:59:56;;;;;;;14.93;14.33;;;8.60;99.90;;;;;;5143506;27;20466;-66
2023/05/06 02:02:22;;;;;;;15.57;14.97;;;8.60;99.90;;;;;;5136988;27;20514;-67
2023/05/06 02:04:51;;;;;;;15.47;14.87;;;8.60;99.90;;;;;;5134106;27;20468;-67
2023/05/06 02:07:17;;;;;;;14.80;14.20;;;8.60;99.90;;;;;;5144767;27;20508;-67
2023/05/06 02:09:45;;;;;;;15.97;15.37;;;8.50;99.90;;;;;;5149731;27;20787;-67
2023/05/06 02:12:13;;;;;;;15.50;14.90;;;8.40;99.90;;;;;;5150149;27;21000;-67
2023/05/06 02:14:42;;;;;;;15.80;15.20;;;8.40;99.90;;;;;;5134085;27;20478;-67
2023/05/06 02:17:09;;;;;;;16.10;15.50;;;8.40;99.90;;;;;;5139703;27;20491;-67
2023/05/06 02:19:36;;;;;;;16.10;15.50;;;8.40;99.90;;;;;;5138303;27;20957;-67
2023/05/06 02:22:03;;;;;;;16.30;15.70;;;8.40;99.90;;;;;;5149173;27;20965;-66
2023/05/06 02:24:30;;;;;;;15.90;15.30;;;8.50;99.90;;;;;;5144553;27;21047;-67
2023/05/06 02:26:58;;;;;;;16.37;15.77;;;8.50;99.90;;;;;;5140624;27;20463;-67
2023/05/06 02:29:25;;;;;;;16.13;15.53;;;8.40;99.90;;;;;;5149082;27;20451;-67
2023/05/06 02:31:53;;;;;;;16.17;15.57;;;8.50;99.90;;;;;;5138831;27;20447;-67
2023/05/06 02:34:20;;;;;;;15.83;15.23;;;8.50;99.90;;;;;;5142302;27;21021;-67
2023/05/06 02:36:47;;;;;;;15.10;14.50;;;8.60;99.90;;;;;;5141744;27;20993;-67
2023/05/06 02:39:14;;;;;;;15.73;15.13;;;8.50;99.90;;;;;;5146693;27;20550;-67
2023/05/06 02:41:42;;;;;;;17.10;16.40;;;8.30;99.90;;;;;;5133374;27;20460;-67
2023/05/06 02:44:09;;;;;;;16.70;16.00;;;8.20;99.90;;;;;;5145546;27;20478;-67
2023/05/06 02:46:36;;;;;;;17.23;16.53;;;8.20;99.90;;;;;;5148894;27;20451;-67
2023/05/06 02:49:04;;;;;;;17.87;17.17;;;8.30;99.90;;;;;;5135823;27;21146;-67
2023/05/06 02:51:32;;;;;;;15.47;14.87;;;8.40;99.90;;;;;;5143517;27;20546;-67
2023/05/06 02:53:59;;;;;;;16.27;15.67;;;8.40;99.90;;;;;;5148551;27;20460;-67
2023/05/06 02:56:26;;;;;;;15.73;15.13;;;8.40;99.90;;;;;;5149883;27;20494;-67
2023/05/06 02:58:55;;;;;;;17.70;17.00;;;8.40;99.90;;;;;;5152951;27;20545;-66
2023/05/06 03:01:22;;;;;;;16.40;15.80;;;8.30;99.90;;;;;;5141892;27;20504;-66
2023/05/06 03:03:49;;;;;;;16.60;15.90;;;8.30;99.90;;;;;;5143263;27;20615;-67
2023/05/06 03:06:18;;;;;;;16.17;15.57;;;8.30;99.90;;;;;;5153357;27;20487;-67
2023/05/06 03:08:46;;;;;;;16.27;15.67;;;8.30;99.90;;;;;;5141587;27;20743;-68
2023/05/06 03:11:13;;;;;;;15.70;15.10;;;8.20;99.90;;;;;;5145281;27;20918;-68
2023/05/06 03:13:39;;;;;;;17.37;16.67;;;8.10;99.90;;;;;;5143190;27;20489;-68
2023/05/06 03:16:13;;;;;;;17.93;17.23;;;8.00;99.90;;;;;;5150452;27;20475;-68
2023/05/06 03:18:39;;;;;;;17.07;16.37;;;7.90;99.90;;;;;;5145837;27;21078;-68
2023/05/06 03:21:07;;;;;;;17.20;16.50;;;7.80;99.90;;;;;;5149013;27;20485;-67
2023/05/06 03:23:36;;;;;;;17.10;16.40;;;7.80;99.90;;;;;;5145784;27;20470;-68
2023/05/06 03:26:03;;;;;;;18.10;17.40;;;7.80;99.90;;;;;;5151906;27;20519;-68
2023/05/06 03:28:31;;;;;;;16.43;15.73;;;7.70;99.90;;;;;;5133811;27;20452;-68
2023/05/06 03:30:58;;;;;;;16.80;16.10;;;7.60;99.90;;;;;;5146444;27;20467;-68
2023/05/06 03:33:25;;;;;;;17.47;16.77;;;7.60;99.90;;;;;;5147329;27;20528;-68
2023/05/06 03:35:53;;;;;;;16.90;16.20;;;7.60;99.90;;;;;;5144249;27;20479;-68
2023/05/06 03:38:20;;;;;;;15.83;15.23;;;7.60;99.90;;;;;;5146153;27;20509;-68
2023/05/06 03:40:48;;;;;;;16.37;15.77;;;7.70;99.90;;;;;;5144843;27;20452;-68
2023/05/06 03:43:15;;;;;;;17.07;16.37;;;7.70;99.90;;;;;;5145542;27;20470;-68
2023/05/06 03:45:43;;;;;;;15.90;15.30;;;7.70;99.90;;;;;;5135040;27;20466;-67
2023/05/06 03:48:09;;;;;;;16.97;16.27;;;7.70;99.90;;;;;;5146850;27;20469;-67
2023/05/06 03:50:37;;;;;;;17.07;16.37;;;7.60;99.90;;;;;;5141862;27;20455;-67
2023/05/06 03:53:05;;;;;;;17.47;16.77;;;7.60;99.90;;;;;;5137366;27;20460;-67
2023/05/06 03:55:32;;;;;;;17.83;17.13;;;7.60;99.90;;;;;;5142868;27;20550;-67
2023/05/06 03:58:01;;;;;;;18.20;17.40;;;7.60;99.90;;;;;;5144463;27;20818;-67
2023/05/06 04:00:28;;;;;;;19.00;18.20;;;7.60;99.90;;;;;;5141794;27;20468;-68
2023/05/06 04:02:55;;;;;;;17.63;16.93;;;7.60;99.90;;;;;;5143327;27;20467;-68
2023/05/06 04:05:22;;;;;;;18.27;17.50;;;7.60;99.90;;;;;;5149566;27;20862;-68
2023/05/06 04:07:48;;;;;;;18.47;17.67;;;7.60;99.90;;;;;;5137918;27;20871;-68
2023/05/06 04:10:16;;;;;;;17.87;17.17;;;7.60;99.90;;;;;;5151112;27;20997;-67
2023/05/06 04:12:43;;;;;;;17.53;16.83;;;7.70;99.90;;;;;;5144244;27;20472;-67
2023/05/06 04:15:12;;;;;;;16.63;15.93;;;7.70;99.90;;;;;;5141710;27;21029;-67
2023/05/06 04:17:39;;;;;;;17.57;16.87;;;7.80;99.90;;;;;;5141609;27;20770;-68
2023/05/06 04:20:10;;;;;;;16.67;15.97;;;7.80;99.90;;;;;;5151516;27;20532;-68
2023/05/06 04:22:36;;;;;;;18.00;17.30;;;7.90;99.90;;;;;;5138559;27;20805;-69
2023/05/06 04:25:03;;;;;;;17.83;17.13;;;7.90;99.90;;;;;;5143719;27;20948;-68
2023/05/06 04:27:31;;;;;;;18.97;18.17;;;8.00;99.90;;;;;;5145500;27;20809;-68
2023/05/06 04:29:58;;;;;;;17.90;17.20;;;8.00;99.90;;;;;;5134568;27;20492;-68
2023/05/06 04:32:28;;;;;;;17.97;17.27;;;8.10;99.90;;;;;;5153562;27;21053;-68
2023/05/06 04:34:55;;;;;;;17.83;17.13;;;8.10;99.90;;;;;;5136502;27;20468;-67
2023/05/06 04:37:23;;;;;;;17.90;17.20;;;8.10;99.90;;;;;;5144050;27;20988;-68
2023/05/06 04:39:50;;;;;;;17.80;17.10;;;8.20;99.90;;;;;;5149595;27;20535;-68
2023/05/06 04:42:17;;;;;;;18.63;17.87;;;8.20;99.90;;;;;;5140702;27;20459;-67
2023/05/06 04:44:43;;;;;;;17.73;17.03;;;8.20;99.90;;;;;;5136291;27;20539;-67
2023/05/06 04:47:11;;;;;;;17.37;16.67;;;8.20;99.90;;;;;;5137065;27;20832;-68
2023/05/06 04:49:39;;;;;;;17.80;17.10;;;8.40;99.90;;;;;;5148950;27;20457;-68
2023/05/06 04:52:06;;;;;;;17.70;17.00;;;8.60;99.90;;;;;;5150831;27;20474;-67
2023/05/06 04:54:33;;;;;;;16.93;16.23;;;8.80;99.90;;;;;;5136909;27;20455;-67
2023/05/06 04:57:01;;;;;;;16.23;15.63;;;8.90;99.90;;;;;;5144429;27;20522;-67
2023/05/06 04:59:28;;;;;;;17.10;16.40;;;9.10;99.90;;;;;;5147834;27;20876;-68
2023/05/06 05:01:54;;;;;;;16.40;15.73;;;9.20;99.90;;;;;;5139466;27;20464;-68
2023/05/06 05:04:21;;;;;;;16.47;15.77;;;9.30;99.90;;;;;;5138080;27;20854;-67
2023/05/06 05:06:49;;;;;;;15.67;15.07;;;9.40;99.90;;;;;;5138253;27;20463;-68
2023/05/06 05:09:17;;;;;;;16.70;16.00;;;9.50;99.90;;;;;;5143383;27;20973;-67
2023/05/06 05:11:44;;;;;;;16.03;15.43;;;9.50;99.90;;;;;;5145295;27;20467;-68
2023/05/06 05:14:10;;;;;;;16.97;16.27;;;9.70;99.90;;;;;;5137658;27;20484;-68
2023/05/06 05:16:38;;;;;;;17.03;16.33;;;9.80;99.90;;;;;;5143651;27;20880;-68
2023/05/06 05:19:05;;;;;;;17.30;16.60;;;9.80;99.90;;;;;;5142993;27;20455;-68
2023/05/06 05:21:31;;;;;;;16.53;15.93;;;9.70;99.90;;;;;;5147420;27;20923;-68
2023/05/06 05:24:00;;;;;;;16.77;16.07;;;9.70;99.90;;;;;;5144979;27;20949;-68
2023/05/06 05:26:27;;;;;;;17.03;16.33;;;9.80;99.90;;;;;;5136933;27;20508;-68
2023/05/06 05:28:54;;;;;;;16.13;15.53;;;9.90;99.90;;;;;;5143524;27;21029;-67
2023/05/06 05:31:22;;;;;;;16.20;15.60;;;10.00;99.90;;;;;;5140613;27;20460;-68
2023/05/06 05:33:49;;;;;;;17.57;16.87;;;10.10;99.90;;;;;;5137402;27;20957;-69
2023/05/06 05:36:17;;;;;;;15.73;15.13;;;10.30;99.90;;;;;;5141665;27;21052;-68
2023/05/06 05:38:46;;;;;;;16.60;15.97;;;10.50;99.90;;;;;;5142984;27;20487;-68
2023/05/06 05:41:15;;;;;;;15.60;15.00;;;10.70;99.90;;;;;;5143647;27;20512;-67
2023/05/06 05:43:42;;;;;;;14.77;14.17;;;10.90;99.90;;;;;;5145670;27;20686;-67
2023/05/06 05:46:09;;;;;;;13.73;13.23;;;11.00;99.90;;;;;;5141897;27;21047;-66
2023/05/06 05:48:38;;;;;;;13.30;12.80;;;11.10;99.90;;;;;;5147382;27;20451;-66
2023/05/06 05:51:05;;;;;;;12.87;12.37;;;11.20;99.90;;;;;;5140733;27;20542;-67
2023/05/06 05:53:33;;;;;;;13.33;12.83;;;11.20;99.90;;;;;;5137421;27;20468;-66
2023/05/06 05:56:00;;;;;;;11.33;10.93;;;11.30;99.90;;;;;;5140513;27;20543;-67
2023/05/06 05:58:29;;;;;;;10.67;10.27;;;11.40;99.90;;;;;;5144159;27;20502;-67
2023/05/06 06:00:57;;;;;;;10.93;10.53;;;11.50;99.90;;;;;;5136149;27;20455;-66
2023/05/06 06:03:24;;;;;;;10.03;9.73;;;11.60;99.90;;;;;;5137553;27;20495;-66
2023/05/06 06:05:54;;;;;;;11.20;10.80;;;11.80;99.90;;;;;;5136364;27;20821;-67
2023/05/06 06:08:22;;;;;;;11.30;10.90;;;11.90;99.90;;;;;;5137917;27;20464;-66
2023/05/06 06:10:49;;;;;;;9.93;9.63;;;12.00;99.90;;;;;;5144615;27;20471;-66
2023/05/06 06:13:17;;;;;;;10.37;9.97;;;12.10;99.90;;;;;;5138026;27;20464;-66
2023/05/06 06:15:45;;;;;;;10.20;9.80;;;12.20;99.90;;;;;;5139729;27;20466;-67
2023/05/06 06:18:13;;;;;;;10.77;10.37;;;12.30;99.90;;;;;;5140689;27;20540;-66
2023/05/06 06:20:40;;;;;;;10.53;10.13;;;12.40;99.90;;;;;;5137049;27;20456;-67
2023/05/06 06:23:07;;;;;;;10.47;10.07;;;12.50;99.90;;;;;;5139783;27;20460;-67
2023/05/06 06:25:34;;;;;;;9.67;9.27;;;12.60;99.90;;;;;;5140646;27;20444;-67
2023/05/06 06:28:01;;;;;;;9.43;9.13;;;12.60;99.90;;;;;;5146773;27;20506;-67
2023/05/06 06:30:28;;;;;;;8.50;8.20;;;12.60;99.90;;;;;;5145223;27;20985;-67
2023/05/06 06:32:58;;;;;;;8.50;8.20;;;12.60;99.90;;;;;;5140238;27;20551;-67
2023/05/06 06:35:25;;;;;;;9.13;8.83;;;12.70;99.90;;;;;;5138736;27;20867;-66
2023/05/06 06:37:53;;;;;;;8.30;8.00;;;12.80;99.90;;;;;;5149999;27;20938;-66
2023/05/06 06:40:20;;;;;;;7.23;7.03;;;12.80;99.90;;;;;;5143014;27;20559;-68
2023/05/06 06:42:47;;;;;;;7.47;7.27;;;12.90;99.90;;;;;;5141217;27;20517;-67
2023/05/06 06:45:15;;;;;;;7.07;6.87;;;13.00;99.90;;;;;;5144269;27;20499;-67
2023/05/06 06:47:43;;;;;;;8.10;7.80;;;13.00;99.90;;;;;;5140166;27;20473;-67
2023/05/06 06:50:11;;;;;;;8.30;8.00;;;13.10;99.90;;;;;;5140470;27;20459;-67
2023/05/06 06:52:38;;;;;;;6.30;6.10;;;13.20;99.90;;;;;;5141616;27;20801;-67
2023/05/06 06:55:06;;;;;;;6.43;6.23;;;13.30;99.90;;;;;;5151934;27;21030;-67
2023/05/06 06:57:33;;;;;;;6.77;6.57;;;13.30;99.90;;;;;;5152051;27;20580;-66
2023/05/06 06:59:59;;;;;;;6.00;5.80;;;13.40;99.90;;;;;;5147083;27;20495;-67
2023/05/06 07:02:27;;;;;;;6.53;6.33;;;13.60;99.90;;;;;;5148121;27;21021;-66
2023/05/06 07:04:54;;;;;;;6.50;6.30;;;13.60;99.90;;;;;;5139954;27;20558;-67
2023/05/06 07:07:22;;;;;;;6.20;6.00;;;13.70;99.90;;;;;;5150542;27;20455;-67
2023/05/06 07:09:49;;;;;;;5.10;5.00;;;13.70;99.90;;;;;;5142280;27;20525;-66
2023/05/06 07:12:17;;;;;;;5.30;5.10;;;13.80;99.90;;;;;;5144736;27;20512;-66
2023/05/06 07:14:44;;;;;;;4.70;4.60;;;13.90;99.90;;;;;;5148999;27;20597;-66
2023/05/06 07:17:11;;;;;;;4.77;4.67;;;14.00;99.90;;;;;;5137053;27;20927;-67
2023/05/06 07:19:38;;;;;;;5.07;4.97;;;14.20;99.90;;;;;;5138339;27;20451;-66
2023/05/06 07:22:04;;;;;;;4.80;4.70;;;14.30;99.90;;;;;;5147133;27;20467;-67
2023/05/06 07:24:33;;;;;;;4.70;4.60;;;14.40;99.90;;;;;;5139341;27;20464;-67
2023/05/06 07:27:00;;;;;;;5.23;5.03;;;14.40;99.90;;;;;;5144921;27;20973;-67
2023/05/06 07:29:27;;;;;;;4.50;4.40;;;14.50;99.90;;;;;;5142860;27;20451;-66
2023/05/06 07:31:55;;;;;;;4.73;4.63;;;14.60;99.90;;;;;;5142890;27;20460;-66
2023/05/06 07:34:22;;;;;;;5.00;4.90;;;14.80;99.90;;;;;;5138704;27;20497;-67
2023/05/06 07:36:49;;;;;;;16.03;11.93;;;15.00;99.90;;;;;;5147657;27;20455;-66
2023/05/06 07:39:16;;;;;;;4.00;3.90;;;15.20;99.90;;;;;;5138760;27;20464;-67
2023/05/06 07:41:44;;;;;;;4.13;4.03;;;15.30;99.90;;;;;;5143714;27;20528;-68
2023/05/06 07:44:11;;;;;;;4.27;4.17;;;15.40;99.90;;;;;;5141536;27;20456;-67
2023/05/06 07:46:38;;;;;;;4.37;4.27;;;15.60;99.90;;;;;;5139726;27;20850;-67
2023/05/06 07:49:05;;;;;;;7.10;5.73;;;15.60;99.90;;;;;;5146905;27;20459;-67
2023/05/06 07:51:32;;;;;;;5.20;5.00;;;15.80;99.90;;;;;;5147407;27;20455;-67
2023/05/06 07:54:00;;;;;;;5.20;5.00;;;15.90;99.90;;;;;;5143763;27;20544;-67
2023/05/06 07:56:27;;;;;;;5.10;5.00;;;15.80;99.90;;;;;;5145705;27;20459;-66
2023/05/06 07:58:55;;;;;;;4.90;4.80;;;15.90;99.90;;;;;;5142171;27;20484;-67
2023/05/06 08:01:22;;;;;;;5.37;5.17;;;16.10;99.90;;;;;;5139552;27;20554;-67
2023/05/06 08:03:49;;;;;;;6.53;6.33;;;16.20;99.90;;;;;;5136432;27;20463;-67
2023/05/06 08:06:16;;;;;;;7.67;7.37;;;16.40;99.90;;;;;;5140197;27;20456;-67
2023/05/06 08:08:45;;;;;;;6.47;6.27;;;16.50;99.90;;;;;;5140645;27;20468;-66
2023/05/06 08:11:12;;;;;;;6.77;6.57;;;16.60;99.90;;;;;;5146169;27;20508;-66
2023/05/06 08:13:39;;;;;;;7.00;6.80;;;16.80;99.90;;;;;;5137151;27;20483;-66
2023/05/06 08:16:09;;;;;;;7.70;7.50;;;16.80;99.90;;;;;;5139037;27;20456;-67
2023/05/06 08:18:36;;;;;;;8.50;8.20;;;16.90;99.90;;;;;;5141906;27;20492;-67
2023/05/06 08:21:03;;;;;;;8.83;8.53;;;17.00;99.90;;;;;;5143012;27;20462;-66
2023/05/06 08:23:31;;;;;;;9.17;8.87;;;17.20;99.90;;;;;;5144591;27;20464;-67
2023/05/06 08:25:58;;;;;;;9.60;9.20;;;17.50;99.90;;;;;;5142256;27;20510;-67
2023/05/06 08:28:25;;;;;;;9.80;9.40;;;17.80;99.90;;;;;;5147282;27;20518;-66
2023/05/06 08:30:52;;;;;;;10.40;10.00;;;18.10;99.90;;;;;;5144706;27;20463;-67
2023/05/06 08:33:21;;;;;;;11.37;10.97;;;18.70;99.90;;;;;;5139357;27;20447;-67
2023/05/06 08:35:49;;;;;;;13.33;12.77;;;19.40;99.90;;;;;;5146081;27;20603;-67
2023/05/06 08:38:16;;;;;;;12.53;12.03;;;20.20;99.90;;;;;;5144970;27;20471;-67
2023/05/06 08:40:44;;;;;;;13.10;12.60;;;20.70;99.90;;;;;;5147173;27;20540;-67
2023/05/06 08:43:14;;;;;;;14.30;13.70;;;21.40;99.90;;;;;;5143310;27;20961;-66
2023/05/06 08:45:41;;;;;;;14.40;13.80;;;21.30;99.90;;;;;;5143229;27;21902;-66
2023/05/06 08:48:09;;;;;;;14.60;14.00;;;21.70;99.90;;;;;;5144910;27;20512;-67
2023/05/06 08:50:42;;;;;;;14.83;14.23;;;21.40;99.90;;;;;;5136351;27;20463;-67
2023/05/06 08:53:10;;;;;;;15.27;14.57;;;22.00;99.90;;;;;;5135156;27;20541;-66
2023/05/06 08:55:38;;;;;;;14.77;14.17;;;22.50;99.90;;;;;;5144621;27;20458;-67
2023/05/06 08:58:07;;;;;;;14.27;13.63;;;22.50;99.90;;;;;;5149619;27;20491;-67
2023/05/06 09:00:35;;;;;;;15.07;14.37;;;22.20;99.90;;;;;;5140110;27;21013;-67
2023/05/06 09:03:02;;;;;;;15.83;15.10;;;22.80;99.90;;;;;;5141692;27;20447;-67
2023/05/06 09:05:28;;;;;;;15.00;14.30;;;22.90;99.90;;;;;;5139793;27;20460;-67
2023/05/06 09:07:57;;;;;;;14.40;13.67;;;23.70;99.90;;;;;;5138049;27;20451;-67
2023/05/06 09:10:24;;;;;;;14.73;14.07;;;24.00;99.90;;;;;;5142026;27;20455;-67
2023/05/06 09:12:54;;;;;;;14.30;13.70;;;23.70;99.90;;;;;;5140197;27;20458;-68
2023/05/06 09:15:24;;;;;;;14.60;14.00;;;24.00;99.90;;;;;;5140056;27;20591;-67
2023/05/06 09:17:50;;;;;;;14.93;14.33;;;24.40;99.90;;;;;;5140612;27;20515;-68
2023/05/06 09:20:17;;;;;;;14.37;13.77;;;24.90;99.90;;;;;;5139353;27;20458;-68
2023/05/06 09:22:44;;;;;;;14.80;14.20;;;25.30;99.90;;;;;;5137369;27;20515;-68
2023/05/06 09:25:13;;;;;;;13.47;12.97;;;25.90;99.90;;;;;;5137245;27;20958;-68
2023/05/06 09:27:41;;;;;;;13.17;12.67;;;26.40;99.90;;;;;;5140506;27;20467;-68
2023/05/06 09:30:10;;;;;;;14.33;13.73;;;25.30;99.90;;;;;;5138225;27;20452;-68
2023/05/06 09:32:37;;;;;;;13.87;13.30;;;24.50;99.90;;;;;;5146495;27;21222;-68
2023/05/06 09:35:05;;;;;;;14.20;13.60;;;24.60;99.90;;;;;;5139296;27;20463;-68
2023/05/06 09:37:32;;;;;;;12.77;12.27;;;25.00;99.90;;;;;;5145049;27;20455;-67
2023/05/06 09:40:00;;;;;;;12.57;12.07;;;25.10;99.90;;;;;;5143464;27;20470;-67
2023/05/06 09:42:30;;;;;;;13.37;12.87;;;25.20;99.90;;;;;;5141206;27;20478;-67
2023/05/06 09:44:58;;;;;;;14.03;13.43;;;25.10;99.90;;;;;;5145487;27;20538;-66
2023/05/06 09:47:27;;;;;;;14.50;13.90;;;25.30;99.90;;;;;;5141859;27;20455;-67
2023/05/06 09:49:57;;;;;;;14.57;13.97;;;25.70;99.90;;;;;;5143022;27;20459;-68
2023/05/06 09:52:24;;;;;;;13.63;13.13;;;25.70;99.90;;;;;;5139444;27;20884;-67
2023/05/06 09:54:52;;;;;;;13.70;13.10;;;26.00;99.90;;;;;;5147130;27;20447;-67
2023/05/06 09:57:21;;;;;;;14.63;14.03;;;26.10;99.90;;;;;;5144923;27;20456;-68
2023/05/06 09:59:52;;;;;;;14.03;13.47;;;26.10;99.90;;;;;;5139778;27;20486;-67
2023/05/06 10:02:19;;;;;;;14.00;13.40;;;25.00;99.90;;;;;;5141813;27;20546;-68
2023/05/06 10:04:48;;;;;;;13.50;13.00;;;25.40;99.90;;;;;;5140877;27;20451;-67
2023/05/06 10:07:18;;;;;;;13.60;13.10;;;26.10;99.90;;;;;;5129935;27;20456;-68
2023/05/06 10:09:46;;;;;;;14.10;13.50;;;26.00;99.90;;;;;;5131341;27;20554;-68
2023/05/06 10:12:14;;;;;;;13.23;12.73;;;25.70;99.90;;;;;;5140931;27;20455;-68
2023/05/06 10:14:41;;;;;;;14.57;13.97;;;25.20;99.90;;;;;;5143396;27;20897;-67
2023/05/06 10:17:12;;;;;;;14.63;14.03;;;25.10;99.90;;;;;;5144836;27;20466;-68
2023/05/06 10:19:42;;;;;;;14.30;13.70;;;25.40;99.90;;;;;;5138134;27;20847;-69
2023/05/06 10:22:16;;;;;;;15.20;14.60;;;25.60;99.90;;;;;;5148142;27;20451;-68
2023/05/06 10:24:49;;;;;;;15.27;14.57;;;24.60;99.90;;;;;;5137813;27;20536;-68
2023/05/06 10:27:18;;;;;;;14.27;13.67;;;24.70;99.90;;;;;;5145828;27;20459;-68
2023/05/06 10:29:46;;;;;;;15.43;14.83;;;25.00;99.90;;;;;;5133326;27;20995;-69
2023/05/06 10:32:15;;;;;;;15.57;14.87;;;25.50;99.90;;;;;;5137772;27;21028;-70
2023/05/06 10:34:52;;;;;;;15.00;14.40;;;25.40;99.90;;;;;;5128944;27;20554;-69
2023/05/06 10:37:24;;;;;;;14.93;14.33;;;25.50;99.90;;;;;;5134192;27;20464;-69
2023/05/06 10:39:53;;;;;;;15.90;15.10;;;26.10;99.90;;;;;;5146342;27;20603;-68
2023/05/06 10:42:25;;;;;;;15.23;14.63;;;26.40;99.90;;;;;;5137529;27;20943;-68
2023/05/06 10:45:03;;;;;;;15.67;14.80;;;26.50;99.90;;;;;;5143069;27;20462;-69
2023/05/06 10:48:08;;;;;;;14.30;13.70;;;25.50;99.90;;;;;;5139890;27;20459;-68
2023/05/06 10:50:35;;;;;;;14.93;14.33;;;25.80;99.90;;;;;;5130642;27;20456;-68
2023/05/06 10:53:02;;;;;;;14.87;14.27;;;26.10;99.90;;;;;;5137872;27;21112;-68
2023/05/06 10:55:32;;;;;;;15.40;14.80;;;26.70;99.90;;;;;;5132093;27;20453;-68
2023/05/06 10:58:03;;;;;;;15.33;14.73;;;27.30;99.90;;;;;;5142798;27;20451;-68
2023/05/06 11:00:34;;;;;;;15.80;15.13;;;27.70;99.90;;;;;;5137651;27;20531;-68
2023/05/06 11:03:07;;;;;;;16.00;15.30;;;27.40;99.90;;;;;;5135550;27;20464;-68
2023/05/06 11:05:47;;;;;;;15.47;14.87;;;28.10;99.90;;;;;;5134784;27;20459;-67
2023/05/06 11:08:21;;;;;;;16.20;15.53;;;28.40;99.70;;;;;;5140768;27;21048;-67
2023/05/06 11:10:48;;;;;;;16.20;15.50;;;28.80;98.50;;;;;;5140440;27;20467;-67
2023/05/06 11:13:23;;;;;;;15.20;14.60;;;29.30;96.70;;;;;;5134235;27;20481;-68
2023/05/06 11:15:50;;;;;;;16.40;15.70;;;28.00;97.20;;;;;;5138005;27;20458;-67
2023/05/06 11:18:43;;;;;;;15.73;15.13;;;27.70;97.50;;;;;;5149762;27;20901;-68
2023/05/06 11:21:40;;;;;;;15.10;14.50;;;28.10;97.50;;;;;;5141178;27;20848;-67
2023/05/06 11:24:09;;;;;;;15.70;15.00;;;27.20;98.10;;;;;;5147219;27;20447;-68
2023/05/06 11:26:36;;;;;;;17.63;16.73;;;27.10;97.80;;;;;;5142310;27;20459;-67
2023/05/06 11:29:04;;;;;;;15.03;14.43;;;26.60;96.90;;;;;;5145554;27;20452;-66
2023/05/06 11:31:41;;;;;;;16.30;15.60;;;25.70;97.90;;;;;;5140097;27;20477;-67
2023/05/06 11:34:13;;;;;;;15.43;14.83;;;26.20;98.20;;;;;;5139853;27;20468;-67
2023/05/06 11:37:06;;;;;;;15.53;14.83;;;27.00;97.80;;;;;;5144747;27;20455;-66
2023/05/06 11:39:35;;;;;;;15.87;15.20;;;28.10;96.80;;;;;;5136394;27;20860;-67
2023/05/06 11:42:03;;;;;;;16.27;15.57;;;29.20;96.60;;;;;;5137955;27;20468;-68
2023/05/06 11:44:31;;;;;;;15.03;14.43;;;29.60;94.80;;;;;;5150308;27;20460;-67
2023/05/06 11:47:04;;;;;;;15.00;14.40;;;29.10;94.40;;;;;;5130203;27;20851;-67
2023/05/06 11:49:37;;;;;;;14.87;14.27;;;28.40;94.40;;;;;;5137128;27;20467;-67
2023/05/06 11:52:05;;;;;;;16.30;15.60;;;28.40;95.30;;;;;;5134731;27;20482;-67
2023/05/06 11:54:35;;;;;;;15.17;14.57;;;29.30;94.30;;;;;;5145375;27;20979;-68
2023/05/06 11:57:02;;;;;;;15.17;14.57;;;29.50;94.50;;;;;;5149999;27;20458;-67
2023/05/06 11:59:31;;;;;;;14.50;13.90;;;29.00;93.60;;;;;;5142683;27;21052;-68
2023/05/06 12:02:01;;;;;;;15.40;14.80;;;29.60;91.20;;;;;;5138180;27;20460;-68
2023/05/06 12:04:36;;;;;;;14.90;14.30;;;30.00;91.00;;;;;;5137040;27;20525;-68
2023/05/06 12:07:04;;;;;;;15.03;14.43;;;30.30;89.80;;;;;;5137223;27;20456;-68
2023/05/06 12:09:34;;;;;;;14.80;14.20;;;30.90;90.00;;;;;;5139615;27;20522;-68
2023/05/06 12:12:03;;;;;;;14.77;14.17;;;31.40;88.80;;;;;;5136914;27;20483;-68
2023/05/06 12:14:30;;;;;;;14.73;14.13;;;32.00;88.00;;;;;;5148922;27;20506;-68
2023/05/06 12:16:57;;;;;;;14.80;14.20;;;31.80;85.60;;;;;;5145558;27;20491;-68
2023/05/06 12:19:25;;;;;;;14.00;13.50;;;31.90;81.00;;;;;;5139142;27;20559;-68
2023/05/06 12:21:52;;;;;;;14.63;14.03;;;31.80;80.60;;;;;;5143064;27;20455;-68
2023/05/06 12:24:28;;;;;;;14.37;13.87;;;30.90;79.90;;;;;;5138258;27;20491;-68
2023/05/06 12:26:56;;;;;;;14.10;13.60;;;31.40;78.60;;;;;;5144227;27;20537;-68
2023/05/06 12:29:23;;;;;;;13.73;13.23;;;30.70;81.00;;;;;;5152379;27;20478;-69
2023/05/06 12:32:06;;;;;;;14.80;14.20;;;31.30;75.00;;;;;;5144288;27;20460;-68
2023/05/06 12:34:37;;;;;;;14.33;13.83;;;31.90;75.80;;;;;;5142817;27;20459;-68
2023/05/06 12:37:04;;;;;;;14.90;14.30;;;31.80;76.30;;;;;;5141361;27;20461;-68
2023/05/06 12:39:37;;;;;;;14.07;13.57;;;31.60;73.10;;;;;;5144036;27;20463;-69